Time;durP1;ratioP1;P1;durP2;ratioP2;P2;SDS_P1;SDS_P2;PMS_P1;PMS_P2;Temp;Humidity;BMP_temperature;BMP_pressure;BME280_temperature;BME280_humidity;BME280_pressure;Samples;Min_cycle;Max_cycle;Signal;HPM_P1;HPM_P2
2022/03/30 00:02:09;;;;;;;56.53;29.30;;;;;;;;;;741651;187;920261;-60
2022/03/30 00:04:31;;;;;;;60.63;31.63;;;;;;;;;;748177;187;918845;-59
2022/03/30 00:06:58;;;;;;;57.10;30.02;;;;;;;;;;744131;185;911339;-60
2022/03/30 00:09:23;;;;;;;61.83;32.30;;;;;;;;;;744031;185;919980;-59
2022/03/30 00:11:53;;;;;;;64.53;30.97;;;;;;;;;;750477;185;916425;-60
2022/03/30 00:14:15;;;;;;;58.03;30.77;;;;;;;;;;745408;185;919002;-59
2022/03/30 00:16:41;;;;;;;61.70;29.13;;;;;;;;;;745262;185;920335;-59
2022/03/30 00:19:06;;;;;;;58.97;30.37;;;;;;;;;;749498;185;918887;-60
2022/03/30 00:21:32;;;;;;;64.17;31.30;;;;;;;;;;741713;186;1021264;-60
2022/03/30 00:23:58;;;;;;;68.73;32.77;;;;;;;;;;742052;188;919622;-59
2022/03/30 00:26:24;;;;;;;58.20;31.20;;;;;;;;;;750982;185;919285;-60
2022/03/30 00:28:50;;;;;;;60.00;29.03;;;;;;;;;;744795;186;919419;-60
2022/03/30 00:31:18;;;;;;;55.00;28.60;;;;;;;;;;744660;187;919446;-59
2022/03/30 00:33:42;;;;;;;54.53;29.50;;;;;;;;;;744982;187;919536;-59
2022/03/30 00:36:07;;;;;;;68.67;31.83;;;;;;;;;;750446;185;920978;-62
2022/03/30 00:38:33;;;;;;;54.67;27.73;;;;;;;;;;747582;187;918961;-59
2022/03/30 00:40:59;;;;;;;56.13;29.37;;;;;;;;;;751461;185;919188;-60
2022/03/30 00:43:25;;;;;;;61.97;31.03;;;;;;;;;;750855;186;1001192;-59
2022/03/30 00:45:51;;;;;;;58.97;29.60;;;;;;;;;;746603;187;919401;-59
2022/03/30 00:48:17;;;;;;;55.00;29.27;;;;;;;;;;744858;186;919612;-59
2022/03/30 00:50:42;;;;;;;67.03;29.50;;;;;;;;;;749655;187;918575;-59
2022/03/30 00:53:08;;;;;;;69.23;31.30;;;;;;;;;;744758;187;919395;-61
2022/03/30 00:55:34;;;;;;;57.50;31.73;;;;;;;;;;744521;187;917512;-60
2022/03/30 00:58:00;;;;;;;64.23;31.37;;;;;;;;;;741944;188;918546;-60
2022/03/30 01:00:27;;;;;;;62.23;31.17;;;;;;;;;;747870;185;921543;-60
2022/03/30 01:02:52;;;;;;;60.80;30.47;;;;;;;;;;741223;187;920107;-59
2022/03/30 01:05:17;;;;;;;62.70;30.90;;;;;;;;;;741339;188;919387;-60
2022/03/30 01:07:43;;;;;;;55.33;30.30;;;;;;;;;;747550;188;919644;-59
2022/03/30 01:10:09;;;;;;;55.83;30.80;;;;;;;;;;742350;188;920221;-60
2022/03/30 01:12:38;;;;;;;55.33;28.33;;;;;;;;;;741753;188;919383;-60
2022/03/30 01:15:01;;;;;;;59.33;30.90;;;;;;;;;;749605;187;923986;-59
2022/03/30 01:17:27;;;;;;;54.83;30.90;;;;;;;;;;747402;187;919264;-59
2022/03/30 01:19:53;;;;;;;59.43;31.10;;;;;;;;;;750449;184;919930;-59
2022/03/30 01:22:19;;;;;;;59.97;31.37;;;;;;;;;;749636;187;917512;-60
2022/03/30 01:24:44;;;;;;;55.30;31.07;;;;;;;;;;744149;187;925413;-60
2022/03/30 01:27:10;;;;;;;59.83;30.17;;;;;;;;;;744181;187;919240;-59
2022/03/30 01:34:40;;;;;;;63.47;31.30;;;;;;;;;;744747;185;919371;-59
2022/03/30 01:37:06;;;;;;;58.20;31.23;;;;;;;;;;744427;186;919530;-60
2022/03/30 01:39:32;;;;;;;64.63;30.83;;;;;;;;;;744950;185;919115;-59
2022/03/30 01:41:58;;;;;;;60.57;32.30;;;;;;;;;;751902;188;919284;-60
2022/03/30 01:44:24;;;;;;;58.80;29.33;;;;;;;;;;744815;187;919969;-59
2022/03/30 01:46:49;;;;;;;58.40;31.47;;;;;;;;;;750014;186;919538;-59
2022/03/30 01:49:15;;;;;;;62.67;33.23;;;;;;;;;;754488;186;920077;-60
2022/03/30 01:51:41;;;;;;;67.28;30.40;;;;;;;;;;750806;184;919601;-59
2022/03/30 01:54:07;;;;;;;57.30;30.40;;;;;;;;;;745505;187;1021134;-59
2022/03/30 01:56:33;;;;;;;70.13;32.90;;;;;;;;;;748484;186;919142;-60
2022/03/30 01:58:59;;;;;;;64.13;31.67;;;;;;;;;;740823;186;921101;-60
2022/03/30 02:01:25;;;;;;;65.13;31.10;;;;;;;;;;735795;188;917996;-59
2022/03/30 02:03:51;;;;;;;59.50;30.60;;;;;;;;;;734308;188;915218;-58
2022/03/30 02:06:17;;;;;;;93.90;44.07;;;;;;;;;;743095;188;916049;-59
2022/03/30 02:08:42;;;;;;;81.60;36.30;;;;;;;;;;740580;188;942680;-60
2022/03/30 02:11:08;;;;;;;67.17;34.03;;;;;;;;;;740135;186;918581;-60
2022/03/30 02:13:34;;;;;;;58.40;33.07;;;;;;;;;;745711;188;920063;-58
2022/03/30 02:15:59;;;;;;;56.53;30.83;;;;;;;;;;738211;188;919087;-60
2022/03/30 02:18:25;;;;;;;62.30;30.20;;;;;;;;;;736493;189;918298;-59
2022/03/30 02:20:52;;;;;;;55.80;29.10;;;;;;;;;;743735;186;916898;-59
2022/03/30 02:23:17;;;;;;;52.37;28.90;;;;;;;;;;712781;193;1021157;-60
2022/03/30 02:25:43;;;;;;;60.85;31.52;;;;;;;;;;710367;190;919022;-59
2022/03/30 02:28:09;;;;;;;70.60;32.70;;;;;;;;;;744319;187;917988;-60
2022/03/30 02:30:35;;;;;;;68.10;32.80;;;;;;;;;;747381;186;916779;-60
2022/03/30 02:33:01;;;;;;;73.43;35.97;;;;;;;;;;742741;185;917215;-60
2022/03/30 02:35:28;;;;;;;67.57;34.03;;;;;;;;;;744595;185;919687;-59
2022/03/30 02:37:55;;;;;;;60.70;32.33;;;;;;;;;;748157;185;918861;-59
2022/03/30 02:40:20;;;;;;;67.77;33.40;;;;;;;;;;744192;185;914908;-59
2022/03/30 02:42:46;;;;;;;70.03;33.50;;;;;;;;;;750565;185;919359;-59
2022/03/30 02:45:12;;;;;;;54.80;30.77;;;;;;;;;;752876;186;919212;-59
2022/03/30 02:50:09;;;;;;;60.10;30.55;;;;;;;;;;742589;187;919583;-59
2022/03/30 02:52:35;;;;;;;64.67;31.33;;;;;;;;;;741475;188;918466;-59
2022/03/30 02:55:01;;;;;;;61.93;30.00;;;;;;;;;;745738;187;919149;-59
2022/03/30 02:57:27;;;;;;;58.17;31.10;;;;;;;;;;737235;189;920605;-60
2022/03/30 02:59:53;;;;;;;67.67;33.87;;;;;;;;;;737313;189;919555;-60
2022/03/30 03:02:19;;;;;;;72.53;33.77;;;;;;;;;;742641;188;918951;-59
2022/03/30 03:04:45;;;;;;;60.50;31.67;;;;;;;;;;741795;187;919622;-59
2022/03/30 03:07:11;;;;;;;69.80;31.90;;;;;;;;;;742229;186;920845;-59
2022/03/30 03:09:36;;;;;;;61.20;31.77;;;;;;;;;;747620;187;923851;-59
2022/03/30 03:12:03;;;;;;;88.00;35.47;;;;;;;;;;739912;185;919764;-59
2022/03/30 03:14:28;;;;;;;63.40;33.83;;;;;;;;;;745504;187;921015;-60
2022/03/30 03:16:54;;;;;;;66.30;34.20;;;;;;;;;;746129;187;918787;-61
2022/03/30 03:19:20;;;;;;;66.37;33.07;;;;;;;;;;751000;185;920254;-60
2022/03/30 03:21:46;;;;;;;58.90;31.13;;;;;;;;;;744319;185;919260;-65
2022/03/30 03:24:12;;;;;;;67.85;34.83;;;;;;;;;;741435;187;940087;-60
2022/03/30 03:26:38;;;;;;;62.77;31.97;;;;;;;;;;746223;187;919218;-60
2022/03/30 03:29:03;;;;;;;67.67;33.40;;;;;;;;;;744429;187;919109;-60
2022/03/30 03:31:29;;;;;;;68.60;34.87;;;;;;;;;;741819;188;918345;-60
2022/03/30 03:33:55;;;;;;;60.53;33.30;;;;;;;;;;750525;185;919054;-60
2022/03/30 03:36:21;;;;;;;71.45;34.95;;;;;;;;;;746321;185;918758;-61
2022/03/30 03:38:47;;;;;;;70.30;33.63;;;;;;;;;;742182;187;919063;-60
2022/03/30 03:41:13;;;;;;;68.73;35.80;;;;;;;;;;744852;185;1021926;-60
2022/03/30 03:43:39;;;;;;;65.10;32.70;;;;;;;;;;740452;185;920406;-60
2022/03/30 03:46:05;;;;;;;62.93;33.67;;;;;;;;;;740924;185;919330;-61
2022/03/30 03:48:31;;;;;;;63.23;32.00;;;;;;;;;;743526;185;918953;-61
2022/03/30 03:50:57;;;;;;;59.10;34.10;;;;;;;;;;748495;185;919439;-60
2022/03/30 03:53:22;;;;;;;68.07;31.70;;;;;;;;;;740745;186;924218;-60
2022/03/30 03:55:48;;;;;;;76.97;34.10;;;;;;;;;;742584;184;918923;-60
2022/03/30 03:58:14;;;;;;;62.13;33.30;;;;;;;;;;750994;185;917177;-60
2022/03/30 04:00:40;;;;;;;70.33;33.63;;;;;;;;;;745734;185;920214;-60
2022/03/30 04:03:06;;;;;;;63.87;33.67;;;;;;;;;;745889;184;918989;-60
2022/03/30 04:05:32;;;;;;;59.50;31.55;;;;;;;;;;747610;185;919646;-60
2022/03/30 04:07:58;;;;;;;64.03;34.27;;;;;;;;;;766860;182;624200;-61
2022/03/30 04:10:24;;;;;;;68.00;33.20;;;;;;;;;;749381;187;618981;-61
2022/03/30 04:12:50;;;;;;;64.50;32.97;;;;;;;;;;740492;186;920317;-60
2022/03/30 04:15:15;;;;;;;64.67;31.47;;;;;;;;;;744321;186;920488;-60
2022/03/30 04:17:41;;;;;;;59.40;29.87;;;;;;;;;;744050;185;918802;-60
2022/03/30 04:20:08;;;;;;;65.95;32.38;;;;;;;;;;746222;186;896973;-60
2022/03/30 04:22:34;;;;;;;72.10;34.13;;;;;;;;;;745858;185;919333;-60
2022/03/30 04:24:59;;;;;;;63.33;33.00;;;;;;;;;;741107;185;919238;-60
2022/03/30 04:27:25;;;;;;;75.83;35.80;;;;;;;;;;742694;184;919077;-60
2022/03/30 04:29:51;;;;;;;67.78;34.60;;;;;;;;;;744885;188;918567;-60
2022/03/30 04:32:17;;;;;;;67.17;35.10;;;;;;;;;;741008;185;920150;-60
2022/03/30 04:34:43;;;;;;;67.83;36.00;;;;;;;;;;739391;184;919674;-60
2022/03/30 04:37:09;;;;;;;63.10;31.90;;;;;;;;;;738303;186;919404;-60
2022/03/30 04:39:34;;;;;;;69.03;33.90;;;;;;;;;;746663;186;919550;-61
2022/03/30 04:42:00;;;;;;;60.50;32.10;;;;;;;;;;742612;187;919347;-61
2022/03/30 04:44:26;;;;;;;72.40;32.63;;;;;;;;;;744030;187;1021252;-61
2022/03/30 04:46:52;;;;;;;66.13;33.83;;;;;;;;;;750046;185;917157;-62
2022/03/30 04:49:18;;;;;;;62.90;32.00;;;;;;;;;;742013;186;919150;-60
2022/03/30 04:51:44;;;;;;;67.37;37.37;;;;;;;;;;743100;187;918575;-60
2022/03/30 04:54:10;;;;;;;74.87;36.47;;;;;;;;;;747820;185;629783;-61
2022/03/30 04:56:35;;;;;;;70.27;36.87;;;;;;;;;;741730;185;919148;-61
2022/03/30 04:59:01;;;;;;;67.03;33.63;;;;;;;;;;748995;184;918785;-60
2022/03/30 05:01:27;;;;;;;77.60;33.63;;;;;;;;;;745544;185;918896;-60
2022/03/30 05:03:53;;;;;;;66.90;34.60;;;;;;;;;;745020;184;816511;-60
2022/03/30 05:06:19;;;;;;;76.63;34.57;;;;;;;;;;743721;183;918546;-60
2022/03/30 05:08:45;;;;;;;76.67;37.10;;;;;;;;;;746110;183;919294;-60
2022/03/30 05:11:10;;;;;;;61.30;33.53;;;;;;;;;;751608;184;918697;-61
2022/03/30 05:13:36;;;;;;;67.80;32.73;;;;;;;;;;745447;184;919334;-61
2022/03/30 05:16:02;;;;;;;65.80;35.80;;;;;;;;;;745642;187;620811;-61
2022/03/30 05:18:28;;;;;;;68.67;33.90;;;;;;;;;;752145;186;625941;-61
2022/03/30 05:20:54;;;;;;;67.63;36.27;;;;;;;;;;746021;185;918851;-60
2022/03/30 05:23:20;;;;;;;73.67;33.60;;;;;;;;;;745303;187;919594;-60
2022/03/30 05:25:46;;;;;;;68.50;33.58;;;;;;;;;;746785;186;918726;-60
2022/03/30 05:28:12;;;;;;;75.17;36.73;;;;;;;;;;746950;185;918628;-61
2022/03/30 05:30:37;;;;;;;71.90;37.57;;;;;;;;;;739962;186;884969;-61
2022/03/30 05:33:03;;;;;;;81.78;39.17;;;;;;;;;;743171;184;913474;-60
2022/03/30 05:35:29;;;;;;;79.50;36.87;;;;;;;;;;752129;187;626840;-60
2022/03/30 05:37:55;;;;;;;79.37;37.50;;;;;;;;;;745433;187;918883;-60
2022/03/30 05:40:21;;;;;;;69.33;37.47;;;;;;;;;;744600;187;919296;-60
2022/03/30 05:42:47;;;;;;;75.77;37.50;;;;;;;;;;746378;187;919226;-60
2022/03/30 05:45:13;;;;;;;71.90;37.33;;;;;;;;;;744393;187;837454;-60
2022/03/30 05:47:39;;;;;;;80.77;38.13;;;;;;;;;;745456;187;623815;-60
2022/03/30 05:50:07;;;;;;;77.23;34.70;;;;;;;;;;748057;187;630368;-61
2022/03/30 05:52:31;;;;;;;75.90;36.13;;;;;;;;;;748324;185;643243;-61
2022/03/30 05:54:56;;;;;;;76.47;38.87;;;;;;;;;;744462;186;628319;-60
2022/03/30 05:57:23;;;;;;;74.00;37.90;;;;;;;;;;744728;187;628286;-61
2022/03/30 05:59:48;;;;;;;89.60;38.33;;;;;;;;;;749745;187;634470;-61
2022/03/30 06:02:14;;;;;;;71.23;34.10;;;;;;;;;;746090;187;623301;-60
2022/03/30 06:04:41;;;;;;;74.53;34.27;;;;;;;;;;746088;186;633952;-61
2022/03/30 06:07:06;;;;;;;73.70;36.67;;;;;;;;;;751797;187;638071;-60
2022/03/30 06:09:33;;;;;;;69.53;35.70;;;;;;;;;;746295;187;918051;-60
2022/03/30 06:11:58;;;;;;;75.18;36.10;;;;;;;;;;744192;186;915633;-60
2022/03/30 06:14:24;;;;;;;89.17;40.67;;;;;;;;;;746911;185;918254;-60
2022/03/30 06:16:50;;;;;;;88.43;40.87;;;;;;;;;;743109;186;917256;-61
2022/03/30 06:19:16;;;;;;;77.13;35.97;;;;;;;;;;748289;184;914320;-60
2022/03/30 06:21:42;;;;;;;86.63;39.60;;;;;;;;;;747218;185;929467;-60
2022/03/30 06:24:07;;;;;;;81.87;39.70;;;;;;;;;;748451;186;919782;-60
2022/03/30 06:26:34;;;;;;;75.05;36.28;;;;;;;;;;743976;184;919972;-60
2022/03/30 06:28:59;;;;;;;78.57;38.27;;;;;;;;;;742479;187;917720;-60
2022/03/30 06:31:25;;;;;;;77.57;34.50;;;;;;;;;;749608;185;617019;-62
2022/03/30 06:33:51;;;;;;;76.90;37.03;;;;;;;;;;746631;184;918027;-60
2022/03/30 06:36:16;;;;;;;75.57;39.80;;;;;;;;;;742954;184;918558;-61
2022/03/30 06:38:42;;;;;;;86.77;37.60;;;;;;;;;;747206;185;919429;-61
2022/03/30 06:41:08;;;;;;;75.80;35.40;;;;;;;;;;747525;186;917042;-61
2022/03/30 06:43:36;;;;;;;84.70;37.47;;;;;;;;;;742434;185;919315;-60
2022/03/30 06:46:00;;;;;;;79.30;39.90;;;;;;;;;;746441;186;919530;-60
2022/03/30 06:48:26;;;;;;;69.30;35.67;;;;;;;;;;742731;187;921805;-61
2022/03/30 06:50:52;;;;;;;83.82;38.05;;;;;;;;;;746621;184;918998;-61
2022/03/30 06:53:17;;;;;;;72.97;37.67;;;;;;;;;;739897;187;919397;-61
2022/03/30 06:55:43;;;;;;;72.47;38.87;;;;;;;;;;749197;184;917493;-61
2022/03/30 06:58:09;;;;;;;65.03;32.67;;;;;;;;;;744211;185;919362;-61
2022/03/30 07:00:35;;;;;;;62.87;33.37;;;;;;;;;;743207;185;925685;-61
2022/03/30 07:03:01;;;;;;;77.63;35.00;;;;;;;;;;747662;184;918518;-60
2022/03/30 07:05:27;;;;;;;85.63;34.90;;;;;;;;;;746108;184;919354;-61
2022/03/30 07:10:27;;;;;;;66.20;36.50;;;;;;;;;;742444;184;919654;-61
2022/03/30 07:12:50;;;;;;;77.10;36.17;;;;;;;;;;745822;187;920353;-61
2022/03/30 07:15:16;;;;;;;95.33;49.20;;;;;;;;;;740673;186;1021368;-61
2022/03/30 07:17:42;;;;;;;71.23;36.57;;;;;;;;;;739673;185;921131;-61
2022/03/30 07:20:10;;;;;;;105.23;34.17;;;;;;;;;;745505;184;919945;-61
2022/03/30 07:22:35;;;;;;;73.87;36.37;;;;;;;;;;721569;192;1016628;-61
2022/03/30 07:25:00;;;;;;;77.97;39.07;;;;;;;;;;722179;192;914844;-61
2022/03/30 07:27:26;;;;;;;79.72;40.20;;;;;;;;;;750082;187;914687;-62
2022/03/30 07:29:52;;;;;;;77.00;41.03;;;;;;;;;;746762;186;920079;-61
2022/03/30 07:32:19;;;;;;;75.87;38.63;;;;;;;;;;744277;186;919275;-62
2022/03/30 07:34:44;;;;;;;76.57;35.73;;;;;;;;;;741109;186;919716;-61
2022/03/30 07:37:10;;;;;;;78.93;38.97;;;;;;;;;;745616;184;918202;-61
2022/03/30 07:39:36;;;;;;;77.00;35.93;;;;;;;;;;741303;185;918413;-61
2022/03/30 07:42:02;;;;;;;86.50;36.83;;;;;;;;;;740731;184;918552;-61
2022/03/30 07:44:27;;;;;;;80.73;35.73;;;;;;;;;;751301;184;915618;-62
2022/03/30 07:46:54;;;;;;;82.70;37.87;;;;;;;;;;744931;185;919522;-62
2022/03/30 07:49:19;;;;;;;71.93;38.37;;;;;;;;;;744129;186;919591;-61
2022/03/30 07:51:45;;;;;;;69.87;37.30;;;;;;;;;;751323;185;1020189;-61
2022/03/30 07:54:11;;;;;;;69.10;35.50;;;;;;;;;;746628;187;918064;-62
2022/03/30 07:56:38;;;;;;;78.53;37.27;;;;;;;;;;746139;187;918884;-62
2022/03/30 07:59:03;;;;;;;73.28;37.17;;;;;;;;;;745836;185;919795;-62
2022/03/30 08:01:28;;;;;;;83.30;40.30;;;;;;;;;;749333;187;918934;-62
2022/03/30 08:03:56;;;;;;;72.73;36.70;;;;;;;;;;739588;187;919046;-62
2022/03/30 08:06:20;;;;;;;80.17;35.40;;;;;;;;;;743352;185;921517;-62
2022/03/30 08:08:46;;;;;;;83.57;39.30;;;;;;;;;;749095;187;917775;-62
2022/03/30 08:11:13;;;;;;;76.53;41.37;;;;;;;;;;745128;185;915318;-61
2022/03/30 08:13:38;;;;;;;125.63;62.87;;;;;;;;;;743909;185;915884;-62
2022/03/30 08:16:04;;;;;;;93.67;48.13;;;;;;;;;;747225;185;916089;-62
2022/03/30 08:18:30;;;;;;;79.77;39.10;;;;;;;;;;746037;185;919169;-62
2022/03/30 08:23:27;;;;;;;87.70;39.83;;;;;;;;;;743334;184;922287;-62
2022/03/30 08:25:53;;;;;;;73.63;37.60;;;;;;;;;;745793;187;918983;-62
2022/03/30 08:28:19;;;;;;;90.10;36.07;;;;;;;;;;740618;187;919757;-62
2022/03/30 08:30:45;;;;;;;73.43;35.63;;;;;;;;;;747176;186;919311;-61
2022/03/30 08:33:11;;;;;;;77.63;39.13;;;;;;;;;;749961;185;919388;-62
2022/03/30 08:35:36;;;;;;;68.73;35.37;;;;;;;;;;743959;185;919996;-62
2022/03/30 08:38:03;;;;;;;85.53;39.40;;;;;;;;;;745323;184;919259;-61
2022/03/30 08:40:28;;;;;;;98.12;49.90;;;;;;;;;;744343;187;918310;-62
2022/03/30 08:42:55;;;;;;;88.30;43.17;;;;;;;;;;742750;186;919501;-63
2022/03/30 08:45:20;;;;;;;95.07;47.00;;;;;;;;;;741554;186;1119843;-63
2022/03/30 08:47:46;;;;;;;73.20;38.10;;;;;;;;;;746333;186;919326;-62
2022/03/30 08:50:11;;;;;;;74.73;40.27;;;;;;;;;;746453;187;918692;-64
2022/03/30 08:52:37;;;;;;;70.95;38.28;;;;;;;;;;740231;187;919380;-62
2022/03/30 08:55:04;;;;;;;78.23;40.27;;;;;;;;;;741906;187;918433;-63
2022/03/30 08:57:29;;;;;;;76.67;38.17;;;;;;;;;;745190;187;918358;-62
2022/03/30 09:00:02;;;;;;;79.73;39.70;;;;;;;;;;712769;189;919544;-62
2022/03/30 09:02:32;;;;;;;69.20;34.53;;;;;;;;;;741598;185;920118;-62
2022/03/30 09:05:16;;;;;;;74.80;40.33;;;;;;;;;;741770;187;919110;-62
2022/03/30 09:07:42;;;;;;;79.07;36.50;;;;;;;;;;747333;184;920331;-62
2022/03/30 09:10:11;;;;;;;82.63;39.17;;;;;;;;;;749587;187;919742;-62
2022/03/30 09:12:37;;;;;;;72.17;37.13;;;;;;;;;;745004;187;918519;-63
2022/03/30 09:15:04;;;;;;;83.53;40.70;;;;;;;;;;747078;187;919540;-62
2022/03/30 09:17:30;;;;;;;69.43;34.97;;;;;;;;;;745888;185;1021465;-63
2022/03/30 09:19:55;;;;;;;76.13;35.20;;;;;;;;;;749664;186;919532;-63
2022/03/30 09:22:22;;;;;;;63.90;35.60;;;;;;;;;;744745;184;919960;-63
2022/03/30 09:24:47;;;;;;;82.40;43.33;;;;;;;;;;740991;186;918947;-62
2022/03/30 09:27:13;;;;;;;71.62;35.65;;;;;;;;;;746408;186;918186;-63
2022/03/30 09:29:39;;;;;;;79.77;36.63;;;;;;;;;;712814;190;919094;-63
2022/03/30 09:32:08;;;;;;;84.23;38.07;;;;;;;;;;744318;186;920022;-63
2022/03/30 09:34:34;;;;;;;67.57;34.37;;;;;;;;;;751122;185;918677;-63
2022/03/30 09:37:00;;;;;;;74.93;37.00;;;;;;;;;;742521;186;1127502;-62
2022/03/30 09:39:27;;;;;;;88.50;43.90;;;;;;;;;;745282;185;923909;-62
2022/03/30 09:41:53;;;;;;;76.10;38.90;;;;;;;;;;741381;186;919753;-62
2022/03/30 09:44:19;;;;;;;74.70;36.43;;;;;;;;;;745917;186;918947;-62
2022/03/30 09:46:51;;;;;;;75.23;38.23;;;;;;;;;;743458;185;919336;-63
2022/03/30 09:49:22;;;;;;;80.57;41.20;;;;;;;;;;748628;185;918274;-62
2022/03/30 09:51:48;;;;;;;80.73;41.27;;;;;;;;;;747531;186;920414;-62
2022/03/30 09:54:14;;;;;;;83.57;39.30;;;;;;;;;;751910;184;919481;-63
2022/03/30 09:56:43;;;;;;;65.13;36.53;;;;;;;;;;747871;185;919198;-62
2022/03/30 09:59:06;;;;;;;70.53;39.57;;;;;;;;;;747130;185;1022274;-62
2022/03/30 10:01:34;;;;;;;63.63;32.17;;;;;;;;;;749223;184;919463;-63
2022/03/30 10:03:59;;;;;;;67.40;33.67;;;;;;;;;;743281;187;918593;-63
2022/03/30 10:06:26;;;;;;;71.20;35.77;;;;;;;;;;744928;185;919074;-62
2022/03/30 10:08:50;;;;;;;66.35;36.63;;;;;;;;;;747797;185;919078;-62
2022/03/30 10:11:17;;;;;;;67.23;37.07;;;;;;;;;;745254;187;918585;-62
2022/03/30 10:13:42;;;;;;;56.80;31.37;;;;;;;;;;742604;184;918308;-63
2022/03/30 10:16:08;;;;;;;60.67;31.60;;;;;;;;;;745211;186;918602;-62
2022/03/30 10:18:34;;;;;;;53.37;29.60;;;;;;;;;;749523;187;920291;-62
2022/03/30 10:21:02;;;;;;;57.43;30.13;;;;;;;;;;745753;186;920271;-62
2022/03/30 10:23:28;;;;;;;63.53;32.07;;;;;;;;;;745507;187;918695;-63
2022/03/30 10:26:15;;;;;;;63.40;29.80;;;;;;;;;;745174;185;917905;-64
2022/03/30 10:28:43;;;;;;;63.67;30.60;;;;;;;;;;714428;193;920197;-63
2022/03/30 10:31:09;;;;;;;59.10;29.70;;;;;;;;;;756592;184;919020;-63
2022/03/30 10:33:37;;;;;;;56.33;29.47;;;;;;;;;;742523;187;918745;-63
2022/03/30 10:36:08;;;;;;;46.37;28.07;;;;;;;;;;740961;186;918878;-65
2022/03/30 10:38:34;;;;;;;59.23;30.23;;;;;;;;;;747528;186;917354;-62
2022/03/30 10:41:05;;;;;;;43.23;24.83;;;;;;;;;;744465;185;918733;-63
2022/03/30 10:43:31;;;;;;;50.73;27.97;;;;;;;;;;744144;185;920495;-64
2022/03/30 10:45:57;;;;;;;55.07;30.23;;;;;;;;;;744536;187;918888;-63
2022/03/30 10:48:23;;;;;;;58.73;31.30;;;;;;;;;;749914;187;916619;-64
2022/03/30 10:50:50;;;;;;;56.17;31.30;;;;;;;;;;742615;187;915617;-64
2022/03/30 10:53:21;;;;;;;60.20;32.43;;;;;;;;;;742985;187;917052;-63
2022/03/30 10:55:47;;;;;;;55.25;30.27;;;;;;;;;;742295;184;951479;-63
2022/03/30 10:58:15;;;;;;;53.93;29.53;;;;;;;;;;745505;188;918990;-64
2022/03/30 11:00:41;;;;;;;45.63;26.52;;;;;;;;;;711262;193;919571;-64
2022/03/30 11:03:07;;;;;;;55.30;26.60;;;;;;;;;;711178;193;919308;-64
2022/03/30 11:05:32;;;;;;;52.47;26.57;;;;;;;;;;726928;190;918678;-63
2022/03/30 11:08:00;;;;;;;61.17;25.87;;;;;;;;;;752608;185;919223;-64
2022/03/30 11:10:24;;;;;;;55.37;26.10;;;;;;;;;;741338;186;919631;-64
2022/03/30 11:12:57;;;;;;;42.70;23.70;;;;;;;;;;745608;188;962360;-64
2022/03/30 11:15:23;;;;;;;40.23;22.60;;;;;;;;;;745097;187;918839;-65
2022/03/30 11:17:49;;;;;;;37.33;21.77;;;;;;;;;;742942;187;919886;-64
2022/03/30 11:20:14;;;;;;;39.20;21.57;;;;;;;;;;748663;187;905987;-66
2022/03/30 11:22:44;;;;;;;48.87;23.90;;;;;;;;;;750407;185;919450;-64
2022/03/30 11:25:07;;;;;;;40.10;23.70;;;;;;;;;;742910;186;918143;-64
2022/03/30 11:27:33;;;;;;;45.35;23.48;;;;;;;;;;745092;186;921781;-64
2022/03/30 11:30:00;;;;;;;41.63;24.23;;;;;;;;;;746832;184;921417;-63
2022/03/30 11:32:34;;;;;;;43.17;24.27;;;;;;;;;;739220;187;919836;-64
2022/03/30 11:34:59;;;;;;;38.73;22.03;;;;;;;;;;745757;185;919496;-63
2022/03/30 11:37:25;;;;;;;39.30;20.33;;;;;;;;;;744439;188;918677;-65
2022/03/30 11:39:51;;;;;;;35.20;20.40;;;;;;;;;;748621;185;917166;-64
2022/03/30 11:42:19;;;;;;;37.10;21.00;;;;;;;;;;744271;186;931365;-63
2022/03/30 11:47:16;;;;;;;40.13;23.07;;;;;;;;;;732003;189;918529;-64
2022/03/30 11:49:46;;;;;;;43.60;23.33;;;;;;;;;;743895;185;921432;-64
2022/03/30 11:52:13;;;;;;;46.97;25.23;;;;;;;;;;745419;184;919453;-64
2022/03/30 11:54:39;;;;;;;45.43;26.80;;;;;;;;;;745453;185;919371;-64
2022/03/30 11:57:05;;;;;;;41.60;23.00;;;;;;;;;;746546;185;950096;-64
2022/03/30 11:59:31;;;;;;;49.50;24.93;;;;;;;;;;750254;184;918733;-64
2022/03/30 12:01:57;;;;;;;51.17;25.70;;;;;;;;;;744702;187;918827;-64
2022/03/30 12:04:24;;;;;;;42.70;24.60;;;;;;;;;;745946;187;920107;-65
2022/03/30 12:06:49;;;;;;;59.43;28.80;;;;;;;;;;751550;187;917570;-65
2022/03/30 12:09:15;;;;;;;44.20;23.70;;;;;;;;;;748218;185;919778;-64
2022/03/30 12:11:40;;;;;;;47.83;24.23;;;;;;;;;;747542;187;924200;-65
2022/03/30 12:14:11;;;;;;;45.60;24.80;;;;;;;;;;749308;185;917385;-64
2022/03/30 12:16:32;;;;;;;44.40;25.37;;;;;;;;;;745222;185;921248;-65
2022/03/30 12:18:59;;;;;;;41.93;23.60;;;;;;;;;;745344;185;916367;-65
2022/03/30 12:21:26;;;;;;;39.40;24.40;;;;;;;;;;746544;185;916997;-64
2022/03/30 12:23:51;;;;;;;50.63;24.77;;;;;;;;;;750969;185;916388;-64
2022/03/30 12:26:17;;;;;;;46.83;24.60;;;;;;;;;;742465;184;920346;-65
2022/03/30 12:28:43;;;;;;;45.53;24.20;;;;;;;;;;745680;187;920571;-64
2022/03/30 12:31:10;;;;;;;40.53;23.23;;;;;;;;;;750202;187;916192;-64
2022/03/30 12:33:41;;;;;;;40.50;23.00;;;;;;;;;;746349;186;911339;-64
2022/03/30 12:36:07;;;;;;;43.30;24.40;;;;;;;;;;742020;187;920960;-64
2022/03/30 12:38:33;;;;;;;42.07;24.70;;;;;;;;;;741667;186;915009;-65
2022/03/30 12:40:59;;;;;;;46.43;25.50;;;;;;;;;;746490;187;919186;-65
2022/03/30 12:43:25;;;;;;;50.73;24.53;;;;;;;;;;740872;187;919902;-65
2022/03/30 12:45:54;;;;;;;50.13;26.13;;;;;;;;;;743575;185;917098;-65
2022/03/30 12:48:33;;;;;;;41.67;22.85;;;;;;;;;;751337;187;914195;-64
2022/03/30 12:50:59;;;;;;;47.70;24.23;;;;;;;;;;747001;186;920883;-65
2022/03/30 12:53:29;;;;;;;47.10;26.10;;;;;;;;;;740973;185;993168;-64
2022/03/30 12:55:55;;;;;;;47.77;26.00;;;;;;;;;;739924;186;919408;-64
2022/03/30 12:58:22;;;;;;;49.53;24.80;;;;;;;;;;741265;184;920521;-63
2022/03/30 13:00:47;;;;;;;43.90;24.80;;;;;;;;;;741118;187;918198;-64
2022/03/30 13:03:13;;;;;;;37.83;22.37;;;;;;;;;;740700;187;917750;-66
2022/03/30 13:05:40;;;;;;;43.30;26.20;;;;;;;;;;743518;183;907736;-64
2022/03/30 13:08:07;;;;;;;42.00;24.00;;;;;;;;;;744422;186;910141;-65
2022/03/30 13:10:33;;;;;;;50.77;24.30;;;;;;;;;;744966;187;894716;-64
2022/03/30 13:12:59;;;;;;;38.30;24.00;;;;;;;;;;741345;187;917205;-64
2022/03/30 13:15:25;;;;;;;47.37;27.30;;;;;;;;;;748188;186;919748;-64
2022/03/30 13:17:54;;;;;;;54.17;25.57;;;;;;;;;;747599;187;911912;-64
2022/03/30 13:20:19;;;;;;;47.73;26.00;;;;;;;;;;740166;187;1215379;-64
2022/03/30 13:23:00;;;;;;;45.13;25.50;;;;;;;;;;741681;187;920720;-63
2022/03/30 13:25:26;;;;;;;46.00;26.52;;;;;;;;;;741251;187;919425;-63
2022/03/30 13:27:51;;;;;;;48.93;25.00;;;;;;;;;;748534;185;919598;-63
2022/03/30 13:30:17;;;;;;;49.33;24.23;;;;;;;;;;742736;186;918335;-64
2022/03/30 13:32:43;;;;;;;50.90;26.27;;;;;;;;;;742280;185;916884;-64
2022/03/30 13:35:09;;;;;;;53.30;26.53;;;;;;;;;;747007;186;916086;-64
2022/03/30 13:37:35;;;;;;;48.37;26.37;;;;;;;;;;750223;184;643177;-63
2022/03/30 13:40:01;;;;;;;49.73;26.40;;;;;;;;;;743301;186;915775;-63
2022/03/30 13:42:27;;;;;;;62.33;34.40;;;;;;;;;;749908;186;916910;-64
2022/03/30 13:44:53;;;;;;;85.77;47.70;;;;;;;;;;745496;184;915871;-63
2022/03/30 13:47:19;;;;;;;100.97;45.60;;;;;;;;;;742994;185;916086;-64
2022/03/30 13:49:46;;;;;;;58.23;32.93;;;;;;;;;;740329;187;915036;-63
2022/03/30 13:52:14;;;;;;;49.10;26.67;;;;;;;;;;750533;183;919637;-63
2022/03/30 13:54:37;;;;;;;59.27;33.27;;;;;;;;;;745129;186;915799;-64
2022/03/30 13:57:02;;;;;;;53.23;31.93;;;;;;;;;;746929;187;915354;-62
2022/03/30 13:59:28;;;;;;;58.60;32.33;;;;;;;;;;746443;187;941293;-63
2022/03/30 14:01:54;;;;;;;53.20;31.47;;;;;;;;;;712022;190;918854;-63
2022/03/30 14:04:21;;;;;;;42.70;25.23;;;;;;;;;;745006;185;925042;-63
2022/03/30 14:06:46;;;;;;;47.23;25.20;;;;;;;;;;750136;187;918961;-63
2022/03/30 14:09:12;;;;;;;50.27;26.30;;;;;;;;;;747573;185;918993;-63
2022/03/30 14:11:37;;;;;;;48.57;27.73;;;;;;;;;;743485;187;919425;-63
2022/03/30 14:14:05;;;;;;;52.03;26.10;;;;;;;;;;744854;187;918601;-63